createdAt,value
2023-10-10T00:01:45.406Z,100473.52
2023-10-10T00:04:13.295Z,100474.54
2023-10-10T00:06:41.222Z,100475.41
2023-10-10T00:09:12.334Z,100474.30
2023-10-10T00:11:46.511Z,100469.24
2023-10-10T00:14:18.921Z,100464.85
2023-10-10T00:16:49.243Z,100467.63
2023-10-10T00:19:30.969Z,100467.61
2023-10-10T00:21:58.660Z,100472.36
2023-10-10T00:24:32.367Z,100476.95
2023-10-10T00:27:01.084Z,100479.30
2023-10-10T00:29:30.053Z,100477.77
2023-10-10T00:32:06.944Z,100482.77
2023-10-10T00:34:38.410Z,100479.33
2023-10-10T00:37:09.753Z,100479.33
2023-10-10T00:39:38.000Z,100476.48
2023-10-10T00:42:09.192Z,100476.48
2023-10-10T00:44:39.464Z,100480.53
2023-10-10T00:47:14.558Z,100479.48
2023-10-10T00:49:44.766Z,100472.52
2023-10-10T00:52:14.100Z,100467.65
2023-10-10T00:54:44.892Z,100470.59
2023-10-10T00:57:20.923Z,100468.10
2023-10-10T00:59:50.122Z,100465.57
2023-10-10T01:02:22.168Z,100465.80
2023-10-10T01:04:50.337Z,100469.58
2023-10-10T01:07:21.324Z,100466.83
2023-10-10T01:09:55.387Z,100470.16
2023-10-10T01:12:24.214Z,100467.55
2023-10-10T01:14:56.246Z,100471.10
2023-10-10T01:17:30.569Z,100471.84
2023-10-10T01:20:10.625Z,100476.25
2023-10-10T01:22:41.201Z,100478.59
2023-10-10T01:25:27.630Z,100476.40
2023-10-10T01:27:57.905Z,100481.55
2023-10-10T01:30:45.693Z,100480.57
2023-10-10T01:33:16.395Z,100483.96
2023-10-10T01:35:46.858Z,100482.30
2023-10-10T01:38:43.022Z,100484.43
2023-10-10T01:41:17.375Z,100487.41
2023-10-10T01:43:47.625Z,100489.89
2023-10-10T01:46:29.852Z,100486.91
2023-10-10T01:49:02.802Z,100490.21
2023-10-10T01:51:34.441Z,100492.36
2023-10-10T01:54:29.408Z,100493.27
2023-10-10T01:56:56.651Z,100493.27
2023-10-10T01:59:27.326Z,100487.16
2023-10-10T02:01:56.374Z,100483.85
2023-10-10T02:04:24.796Z,100481.11
2023-10-10T02:06:58.031Z,100489.08
2023-10-10T02:09:25.265Z,100491.92
2023-10-10T02:11:55.946Z,100489.71
2023-10-10T02:14:26.739Z,100488.79
2023-10-10T02:16:57.075Z,100489.52
2023-10-10T02:19:41.370Z,100485.36
2023-10-10T02:22:23.957Z,100482.13
2023-10-10T02:25:10.171Z,100481.02
2023-10-10T02:27:54.985Z,100485.79
2023-10-10T02:30:38.834Z,100484.10
2023-10-10T02:33:25.519Z,100481.72
2023-10-10T02:35:56.493Z,100484.92
2023-10-10T02:38:35.782Z,100484.27
2023-10-10T02:41:24.089Z,100486.21
2023-10-10T02:43:56.322Z,100481.25
2023-10-10T02:46:39.344Z,100481.40
2023-10-10T02:49:14.019Z,100482.55
2023-10-10T02:51:44.343Z,100480.15
2023-10-10T02:54:27.218Z,100479.73
2023-10-10T02:57:21.390Z,100477.94
2023-10-10T02:59:52.121Z,100476.21
2023-10-10T03:02:42.092Z,100474.36
2023-10-10T03:06:07.783Z,100474.29
2023-10-10T03:08:35.152Z,100470.79
2023-10-10T03:11:03.737Z,100469.45
2023-10-10T03:13:38.123Z,100467.40
2023-10-10T03:16:23.334Z,100469.83
2023-10-10T03:19:04.288Z,100469.26
2023-10-10T03:21:50.554Z,100466.48
2023-10-10T03:24:24.297Z,100466.32
2023-10-10T03:27:02.118Z,100473.16
2023-10-10T03:29:48.956Z,100477.63
2023-10-10T03:32:32.519Z,100481.77
2023-10-10T03:35:14.907Z,100483.02
2023-10-10T03:37:46.724Z,100483.62
2023-10-10T03:40:28.435Z,100481.74
2023-10-10T03:43:14.952Z,100478.29
2023-10-10T03:46:01.286Z,100481.94
2023-10-10T03:48:47.297Z,100476.21
2023-10-10T03:51:33.208Z,100477.98
2023-10-10T03:54:19.315Z,100482.05
2023-10-10T03:57:07.256Z,100482.25
2023-10-10T03:59:53.148Z,100493.81
2023-10-10T04:02:39.287Z,100491.25
2023-10-10T04:05:28.094Z,100489.23
2023-10-10T04:08:14.483Z,100487.38
2023-10-10T04:11:06.300Z,100488.67
2023-10-10T04:13:52.469Z,100490.85
2023-10-10T04:16:38.548Z,100489.65
2023-10-10T04:19:24.501Z,100492.94
2023-10-10T04:22:10.382Z,100506.73
2023-10-10T04:24:56.984Z,100518.48
2023-10-10T04:27:44.078Z,100526.06
2023-10-10T04:30:30.102Z,100529.77
2023-10-10T04:33:15.798Z,100535.71
2023-10-10T04:36:04.983Z,100535.41
2023-10-10T04:38:50.936Z,100541.66
2023-10-10T04:41:36.857Z,100537.27
2023-10-10T04:44:22.840Z,100544.34
2023-10-10T04:47:09.078Z,100545.58
2023-10-10T04:49:55.055Z,100540.55
2023-10-10T04:52:41.176Z,100538.58
2023-10-10T04:55:27.064Z,100539.54
2023-10-10T04:58:12.850Z,100545.55
2023-10-10T05:00:58.900Z,100549.67
2023-10-10T05:03:44.790Z,100556.79
2023-10-10T05:06:30.837Z,100561.91
2023-10-10T05:09:16.584Z,100559.46
2023-10-10T05:12:02.481Z,100554.90
2023-10-10T05:14:48.361Z,100557.23
2023-10-10T05:17:34.368Z,100553.02
2023-10-10T05:20:20.519Z,100550.28
2023-10-10T05:23:06.674Z,100551.88
2023-10-10T05:25:34.363Z,100549.80
2023-10-10T05:28:01.599Z,100546.89
2023-10-10T05:30:41.054Z,100546.39
2023-10-10T05:33:08.599Z,100543.71
2023-10-10T05:35:48.831Z,100545.98
2023-10-10T05:38:17.172Z,100553.78
2023-10-10T05:40:44.652Z,100552.52
2023-10-10T05:43:16.754Z,100556.95
2023-10-10T05:45:45.111Z,100562.16
2023-10-10T05:48:13.424Z,100559.08
2023-10-10T05:50:44.042Z,100556.88
2023-10-10T05:53:11.602Z,100552.80
2023-10-10T05:55:39.696Z,100559.42
2023-10-10T05:58:07.135Z,100559.02
2023-10-10T06:00:45.824Z,100561.33
2023-10-10T06:03:15.919Z,100563.04
2023-10-10T06:05:46.741Z,100560.71
2023-10-10T06:08:14.606Z,100566.52
2023-10-10T06:10:42.047Z,100561.71
2023-10-10T06:13:11.810Z,100567.85
2023-10-10T06:15:39.311Z,100573.02
2023-10-10T06:18:15.611Z,100577.88
2023-10-10T06:20:58.065Z,100583.92
2023-10-10T06:23:35.198Z,100582.64
2023-10-10T06:26:03.800Z,100583.59
2023-10-10T06:28:37.265Z,100582.89
2023-10-10T06:31:11.784Z,100586.85
2023-10-10T06:33:42.406Z,100589.46
2023-10-10T06:36:33.827Z,100593.11
2023-10-10T06:39:21.595Z,100594.54
2023-10-10T06:41:52.111Z,100593.19
2023-10-10T06:44:33.301Z,100600.01
2023-10-10T06:47:02.108Z,100602.15
2023-10-10T06:49:44.713Z,100605.27
2023-10-10T06:52:19.677Z,100611.21
2023-10-10T06:54:55.113Z,100614.48
2023-10-10T06:57:38.007Z,100613.23
2023-10-10T07:00:30.482Z,100615.90
2023-10-10T07:02:58.442Z,100609.94
2023-10-10T07:05:29.481Z,100610.56
2023-10-10T07:08:00.384Z,100608.42
2023-10-10T07:10:35.051Z,100608.83
2023-10-10T07:13:03.407Z,100613.27
2023-10-10T07:15:36.929Z,100607.33
2023-10-10T07:18:16.968Z,100607.05
2023-10-10T07:21:03.881Z,100608.86
2023-10-10T07:23:39.430Z,100596.14
2023-10-10T07:26:21.736Z,100591.99
2023-10-10T07:28:49.537Z,100586.81
2023-10-10T07:31:22.348Z,100585.04
2023-10-10T07:34:10.988Z,100586.73
2023-10-10T07:36:38.204Z,100583.30
2023-10-10T07:39:25.718Z,100587.39
2023-10-10T07:41:53.892Z,100585.67
2023-10-10T07:44:23.976Z,100587.98
2023-10-10T07:47:10.119Z,100588.84
2023-10-10T07:49:41.405Z,100593.61
2023-10-10T07:52:17.734Z,100594.39
2023-10-10T07:54:47.557Z,100597.79
2023-10-10T07:57:23.838Z,100599.14
2023-10-10T07:59:56.944Z,100602.71
2023-10-10T08:02:30.753Z,100603.40
2023-10-10T08:04:59.440Z,100603.40
2023-10-10T08:07:27.529Z,100600.14
2023-10-10T08:10:14.498Z,100604.37
2023-10-10T08:12:42.574Z,100606.48
2023-10-10T08:15:26.484Z,100603.55
2023-10-10T08:17:55.456Z,100606.91
2023-10-10T08:20:36.186Z,100610.86
2023-10-10T08:23:04.815Z,100610.15
2023-10-10T08:25:33.305Z,100607.20
2023-10-10T08:28:01.189Z,100600.92
2023-10-10T08:30:28.605Z,100592.75
2023-10-10T08:32:56.920Z,100593.09
2023-10-10T08:35:24.522Z,100590.31
2023-10-10T08:37:52.138Z,100591.60
2023-10-10T08:40:23.235Z,100591.03
2023-10-10T08:42:51.507Z,100591.23
2023-10-10T08:45:26.162Z,100600.42
2023-10-10T08:48:02.982Z,100601.25
2023-10-10T08:50:33.942Z,100601.30
2023-10-10T08:53:01.497Z,100598.48
2023-10-10T08:55:29.520Z,100599.35
2023-10-10T08:57:57.576Z,100604.16
2023-10-10T09:00:28.396Z,100604.19
2023-10-10T09:02:56.625Z,100610.38
2023-10-10T09:05:25.841Z,100608.78
2023-10-10T09:07:56.564Z,100614.06
2023-10-10T09:10:29.723Z,100612.70
2023-10-10T09:12:57.731Z,100610.95
2023-10-10T09:15:28.747Z,100612.83
2023-10-10T09:18:18.855Z,100610.08
2023-10-10T09:20:47.131Z,100603.93
2023-10-10T09:23:28.029Z,100600.52
2023-10-10T09:26:30.822Z,100604.80
2023-10-10T09:29:00.140Z,100598.86
2023-10-10T09:31:33.716Z,100595.11
2023-10-10T09:34:05.039Z,100600.02
2023-10-10T09:36:39.548Z,100601.98
2023-10-10T09:39:10.167Z,100608.73
2023-10-10T09:41:38.891Z,100601.15
2023-10-10T09:44:23.181Z,100599.18
2023-10-10T09:47:03.269Z,100601.07
2023-10-10T09:49:41.676Z,100603.13
2023-10-10T09:52:34.218Z,100608.33
2023-10-10T09:55:08.848Z,100604.38
2023-10-10T09:57:44.762Z,100607.95
2023-10-10T10:00:26.922Z,100611.73
2023-10-10T10:02:58.810Z,100604.80
2023-10-10T10:05:30.140Z,100606.12
2023-10-10T10:08:23.198Z,100607.48
2023-10-10T10:10:57.906Z,100609.84
2023-10-10T10:13:55.149Z,100611.39
2023-10-10T10:17:13.622Z,100607.33
2023-10-10T10:19:48.514Z,100602.31
2023-10-10T10:22:20.253Z,100603.98
2023-10-10T10:24:47.915Z,100610.46
2023-10-10T10:27:32.660Z,100606.88
2023-10-10T10:30:19.786Z,100609.42
2023-10-10T10:32:50.663Z,100602.41
2023-10-10T10:36:07.156Z,100609.98
2023-10-10T10:38:35.615Z,100613.15
2023-10-10T10:41:08.531Z,100615.57
2023-10-10T10:43:43.850Z,100614.69
2023-10-10T10:46:16.993Z,100614.38
2023-10-10T10:48:56.018Z,100608.45
2023-10-10T10:51:42.400Z,100608.73
2023-10-10T10:54:10.513Z,100605.33
2023-10-10T10:56:37.821Z,100603.47
2023-10-10T10:59:15.390Z,100604.73
2023-10-10T11:01:59.318Z,100608.38
2023-10-10T11:04:47.050Z,100607.76
2023-10-10T11:07:27.756Z,100607.98
2023-10-10T11:10:11.417Z,100611.67
2023-10-10T11:12:38.795Z,100612.09
2023-10-10T11:15:12.079Z,100613.36
2023-10-10T11:17:40.415Z,100617.70
2023-10-10T11:20:29.895Z,100626.55
2023-10-10T11:23:08.161Z,100627.27
2023-10-10T11:26:00.044Z,100626.35
2023-10-10T11:28:48.732Z,100629.55
2023-10-10T11:31:24.547Z,100632.54
2023-10-10T11:34:12.100Z,100637.19
2023-10-10T11:36:40.932Z,100637.42
2023-10-10T11:39:33.196Z,100631.02
2023-10-10T11:42:05.899Z,100633.91
2023-10-10T11:44:34.693Z,100628.92
2023-10-10T11:47:09.296Z,100634.72
2023-10-10T11:49:36.730Z,100630.67
2023-10-10T11:52:05.196Z,100633.40
2023-10-10T11:54:32.638Z,100634.69
2023-10-10T11:57:01.269Z,100637.13
2023-10-10T11:59:29.310Z,100642.81
2023-10-10T12:02:08.923Z,100645.06
2023-10-10T12:04:38.748Z,100642.35
2023-10-10T12:07:07.609Z,100645.14
2023-10-10T12:09:35.246Z,100650.09
2023-10-10T12:12:04.588Z,100653.80
2023-10-10T12:14:33.381Z,100652.93
2023-10-10T12:17:01.444Z,100655.88
2023-10-10T12:19:37.493Z,100661.42
2023-10-10T12:22:16.935Z,100660.98
2023-10-10T12:24:44.561Z,100662.13
2023-10-10T12:27:12.076Z,100662.13
2023-10-10T12:29:41.243Z,100663.88
2023-10-10T12:32:23.505Z,100663.79
2023-10-10T12:34:51.723Z,100663.67
2023-10-10T12:37:19.851Z,100664.13
2023-10-10T12:39:47.750Z,100665.35
2023-10-10T12:42:15.292Z,100668.65
2023-10-10T12:44:49.896Z,100676.67
2023-10-10T12:47:20.133Z,100676.73
2023-10-10T12:49:47.850Z,100677.61
2023-10-10T12:52:19.072Z,100674.53
2023-10-10T12:54:48.570Z,100674.73
2023-10-10T12:57:16.134Z,100674.67
2023-10-10T12:59:49.681Z,100678.85
2023-10-10T13:02:17.518Z,100676.85
2023-10-10T13:04:48.521Z,100681.35
2023-10-10T13:07:17.742Z,100685.24
2023-10-10T13:09:48.304Z,100686.08
2023-10-10T13:12:27.791Z,100692.36
2023-10-10T13:15:07.150Z,100692.59
2023-10-10T13:17:51.331Z,100695.17
2023-10-10T13:20:19.996Z,100701.16
2023-10-10T13:22:51.749Z,100698.80
2023-10-10T13:25:20.519Z,100698.23
2023-10-10T13:27:48.094Z,100697.73
2023-10-10T13:30:15.745Z,100696.47
2023-10-10T13:32:44.194Z,100696.55
2023-10-10T13:35:11.781Z,100696.14
2023-10-10T13:37:44.586Z,100695.30
2023-10-10T13:40:24.515Z,100698.30
2023-10-10T13:42:51.970Z,100701.67
2023-10-10T13:45:22.229Z,100704.23
2023-10-10T13:47:49.853Z,100709.14
2023-10-10T13:50:29.961Z,100709.10
2023-10-10T13:52:58.419Z,100709.02
2023-10-10T13:55:27.339Z,100709.42
2023-10-10T13:57:54.929Z,100709.42
2023-10-10T14:00:34.856Z,100707.95
2023-10-10T14:03:05.398Z,100715.27
2023-10-10T14:05:43.051Z,100712.80
2023-10-10T14:08:19.023Z,100718.17
2023-10-10T14:10:51.412Z,100719.98
2023-10-10T14:13:21.884Z,100729.88
2023-10-10T14:15:57.769Z,100731.81
2023-10-10T14:18:29.083Z,100738.23
2023-10-10T14:20:57.526Z,100741.42
2023-10-10T14:23:26.237Z,100744.52
2023-10-10T14:26:04.292Z,100748.45
2023-10-10T14:28:33.420Z,100747.98
2023-10-10T14:31:01.087Z,100748.96
2023-10-10T14:33:28.812Z,100754.20
2023-10-10T14:35:57.752Z,100752.89
2023-10-10T14:38:25.196Z,100753.53
2023-10-10T14:40:52.761Z,100757.04
2023-10-10T14:43:20.993Z,100760.20
2023-10-10T14:45:50.032Z,100762.02
2023-10-10T14:48:20.481Z,100772.83
2023-10-10T14:50:53.942Z,100774.11
2023-10-10T14:53:23.859Z,100779.55
2023-10-10T14:55:54.226Z,100782.20
2023-10-10T14:58:24.471Z,100788.83
2023-10-10T15:00:53.957Z,100796.76
2023-10-10T15:03:21.501Z,100802.02
2023-10-10T15:05:52.818Z,100803.84
2023-10-10T15:08:21.657Z,100807.02
2023-10-10T15:10:52.718Z,100815.64
2023-10-10T15:13:20.353Z,100823.78
2023-10-10T15:15:47.918Z,100825.16
2023-10-10T15:18:18.924Z,100834.31
2023-10-10T15:20:49.998Z,100832.46
2023-10-10T15:24:13.226Z,100838.20
2023-10-10T15:26:41.444Z,100839.33
2023-10-10T15:29:14.227Z,100842.02
2023-10-10T15:31:42.246Z,100843.13
2023-10-10T15:34:14.897Z,100841.09
2023-10-10T15:36:45.357Z,100846.14
2023-10-10T15:39:13.030Z,100851.45
2023-10-10T15:41:42.342Z,100854.58
2023-10-10T15:44:13.571Z,100856.52
2023-10-10T15:46:44.885Z,100859.05
2023-10-10T15:51:46.346Z,100869.90
2023-10-10T15:54:16.055Z,100873.35
2023-10-10T15:56:44.157Z,100876.41
2023-10-10T15:59:11.684Z,100884.68
2023-10-10T16:01:39.282Z,100890.14
2023-10-10T16:04:08.169Z,100894.66
2023-10-10T16:06:36.142Z,100895.92
2023-10-10T16:09:11.598Z,100899.19
2023-10-10T16:11:41.599Z,100903.55
2023-10-10T16:14:15.689Z,100909.27
2023-10-10T16:16:46.579Z,100914.80
2023-10-10T16:19:15.158Z,100915.17
2023-10-10T16:21:43.434Z,100921.14
2023-10-10T16:24:16.725Z,100922.78
2023-10-10T16:26:45.049Z,100928.02
2023-10-10T16:29:12.937Z,100930.70
2023-10-10T16:31:45.082Z,100935.13
2023-10-10T16:34:13.055Z,100941.52
2023-10-10T16:36:40.451Z,100949.94
2023-10-10T16:39:12.185Z,100952.61
2023-10-10T16:41:39.795Z,100960.16
2023-10-10T16:44:12.437Z,100964.50
2023-10-10T16:46:42.157Z,100969.88
2023-10-10T16:49:09.977Z,100977.14
2023-10-10T16:51:37.449Z,100981.93
2023-10-10T16:54:07.737Z,100986.34
2023-10-10T16:56:35.903Z,100983.19
2023-10-10T16:59:05.876Z,100985.47
2023-10-10T17:01:33.781Z,100984.49
2023-10-10T17:04:01.541Z,100983.30
2023-10-10T17:06:32.529Z,100988.23
2023-10-10T17:09:05.898Z,100994.60
2023-10-10T17:11:33.648Z,100995.53
2023-10-10T17:14:04.743Z,100995.92
2023-10-10T17:16:34.277Z,100995.02
2023-10-10T17:21:32.831Z,101003.91
2023-10-10T17:24:02.800Z,101006.20
2023-10-10T17:26:31.750Z,101011.21
2023-10-10T17:29:00.798Z,101013.48
2023-10-10T17:31:28.291Z,101013.15
2023-10-10T17:33:57.055Z,101013.88
2023-10-10T17:36:27.577Z,101014.18
2023-10-10T17:38:55.929Z,101019.38
2023-10-10T17:41:25.163Z,101025.13
2023-10-10T17:43:53.627Z,101025.58
2023-10-10T17:46:22.199Z,101022.71
2023-10-10T17:48:55.419Z,101025.36
2023-10-10T17:51:24.996Z,101026.92
2023-10-10T17:53:58.562Z,101029.86
2023-10-10T17:56:28.017Z,101031.88
2023-10-10T17:58:55.801Z,101035.48
2023-10-10T18:01:23.664Z,101037.25
2023-10-10T18:03:55.241Z,101033.23
2023-10-10T18:06:24.531Z,101032.39
2023-10-10T18:08:56.890Z,101034.63
2023-10-10T18:11:27.748Z,101037.23
2023-10-10T18:13:55.399Z,101039.25
2023-10-10T18:16:23.043Z,101041.88
2023-10-10T18:18:52.983Z,101043.23
2023-10-10T18:21:21.522Z,101046.98
2023-10-10T18:23:48.889Z,101051.29
2023-10-10T18:26:23.026Z,101055.96
2023-10-10T18:28:53.085Z,101060.42
2023-10-10T18:31:31.457Z,101063.61
2023-10-10T18:33:59.096Z,101064.26
2023-10-10T18:36:26.416Z,101064.79
2023-10-10T18:38:55.081Z,101062.71
2023-10-10T18:41:24.463Z,101061.30
2023-10-10T18:43:55.505Z,101065.55
2023-10-10T18:46:25.572Z,101065.05
2023-10-10T18:48:53.322Z,101066.15
2023-10-10T18:51:20.885Z,101066.57
2023-10-10T18:53:49.061Z,101073.29
2023-10-10T18:56:16.465Z,101071.83
2023-10-10T18:58:43.729Z,101069.27
2023-10-10T19:01:12.721Z,101067.66
2023-10-10T19:03:49.160Z,101070.27
2023-10-10T19:06:18.990Z,101077.23
2023-10-10T19:08:49.620Z,101077.39
2023-10-10T19:11:24.587Z,101080.66
2023-10-10T19:13:52.161Z,101087.31
2023-10-10T19:16:19.732Z,101088.69
2023-10-10T19:18:47.439Z,101092.81
2023-10-10T19:21:18.724Z,101096.97
2023-10-10T19:23:51.426Z,101101.46
2023-10-10T19:26:18.986Z,101103.15
2023-10-10T19:28:54.138Z,101107.26
2023-10-10T19:31:25.380Z,101111.05
2023-10-10T19:33:52.813Z,101111.04
2023-10-10T19:36:21.390Z,101116.08
2023-10-10T19:38:49.227Z,101116.67
2023-10-10T19:41:19.427Z,101112.14
2023-10-10T19:43:46.979Z,101114.21
2023-10-10T19:46:14.306Z,101112.82
2023-10-10T19:48:42.322Z,101115.45
2023-10-10T19:51:14.772Z,101118.36
2023-10-10T19:53:42.109Z,101123.21
2023-10-10T19:56:15.413Z,101121.27
2023-10-10T19:58:43.173Z,101122.46
2023-10-10T20:01:10.850Z,101122.94
2023-10-10T20:03:42.775Z,101120.66
2023-10-10T20:06:21.132Z,101126.36
2023-10-10T20:08:49.708Z,101132.13
2023-10-10T20:11:17.125Z,101130.64
2023-10-10T20:13:44.573Z,101133.08
2023-10-10T20:16:18.257Z,101132.69
2023-10-10T20:18:46.393Z,101129.61
2023-10-10T20:21:14.488Z,101135.66
2023-10-10T20:23:43.367Z,101135.96
2023-10-10T20:26:19.609Z,101137.66
2023-10-10T20:28:48.999Z,101144.27
2023-10-10T20:31:18.638Z,101145.05
2023-10-10T20:33:48.533Z,101152.27
2023-10-10T20:36:17.722Z,101157.70
2023-10-10T20:38:45.589Z,101159.61
2023-10-10T20:41:13.626Z,101157.48
2023-10-10T20:43:41.866Z,101163.05
2023-10-10T20:46:09.889Z,101161.41
2023-10-10T20:48:37.517Z,101165.58
2023-10-10T20:51:05.434Z,101166.94
2023-10-10T20:53:33.097Z,101170.38
2023-10-10T20:56:03.305Z,101168.59
2023-10-10T20:58:33.210Z,101166.65
2023-10-10T21:01:03.865Z,101166.98
2023-10-10T21:03:31.369Z,101165.23
2023-10-10T21:05:59.009Z,101169.41
2023-10-10T21:08:27.144Z,101171.55
2023-10-10T21:10:54.553Z,101167.52
2023-10-10T21:13:22.699Z,101166.21
2023-10-10T21:15:50.674Z,101163.73
2023-10-10T21:18:19.751Z,101161.70
2023-10-10T21:21:00.147Z,101160.41
2023-10-10T21:23:31.418Z,101160.34
2023-10-10T21:25:58.877Z,101158.40
2023-10-10T21:28:26.485Z,101159.96
2023-10-10T21:30:54.157Z,101165.36
2023-10-10T21:33:21.816Z,101160.92
2023-10-10T21:35:51.153Z,101163.77
2023-10-10T21:38:21.757Z,101158.11
2023-10-10T21:40:50.612Z,101156.14
2023-10-10T21:43:18.076Z,101159.29
2023-10-10T21:45:45.284Z,101158.93
2023-10-10T21:48:12.679Z,101160.39
2023-10-10T21:50:43.326Z,101159.07
2023-10-10T21:53:10.811Z,101165.52
2023-10-10T21:55:38.688Z,101170.19
2023-10-10T21:58:06.708Z,101172.24
2023-10-10T22:00:34.460Z,101165.21
2023-10-10T22:03:08.552Z,101168.41
2023-10-10T22:05:36.546Z,101171.05
2023-10-10T22:08:08.032Z,101172.23
2023-10-10T22:10:36.963Z,101177.60
2023-10-10T22:13:07.791Z,101179.08
2023-10-10T22:15:36.655Z,101175.35
2023-10-10T22:18:05.875Z,101176.17
2023-10-10T22:20:36.528Z,101176.51
2023-10-10T22:23:07.023Z,101179.94
2023-10-10T22:25:36.135Z,101181.03
2023-10-10T22:28:05.573Z,101177.23
2023-10-10T22:30:37.117Z,101182.06
2023-10-10T22:33:05.687Z,101185.67
2023-10-10T22:35:35.977Z,101188.79
2023-10-10T22:38:06.969Z,101192.08
2023-10-10T22:40:35.300Z,101193.75
2023-10-10T22:43:04.830Z,101203.28
2023-10-10T22:45:36.198Z,101202.15
2023-10-10T22:48:05.158Z,101202.73
2023-10-10T22:50:33.017Z,101206.02
2023-10-10T22:53:05.022Z,101208.04
2023-10-10T22:55:35.986Z,101213.51
2023-10-10T22:58:08.031Z,101215.67
2023-10-10T23:00:39.428Z,101221.05
2023-10-10T23:03:11.586Z,101219.40
2023-10-10T23:05:44.150Z,101219.16
2023-10-10T23:08:13.073Z,101223.75
2023-10-10T23:10:41.473Z,101229.16
2023-10-10T23:13:09.005Z,101230.90
2023-10-10T23:15:38.784Z,101237.24
2023-10-10T23:18:11.793Z,101233.63
2023-10-10T23:20:42.463Z,101238.23
2023-10-10T23:23:12.065Z,101240.39
2023-10-10T23:25:39.860Z,101238.20
2023-10-10T23:28:09.524Z,101241.23
2023-10-10T23:30:40.523Z,101246.00
2023-10-10T23:33:13.176Z,101241.85
2023-10-10T23:35:41.906Z,101244.92
2023-10-10T23:38:10.756Z,101246.42
2023-10-10T23:40:47.442Z,101247.76
2023-10-10T23:43:22.904Z,101244.69
2023-10-10T23:46:00.784Z,101249.56
2023-10-10T23:48:32.067Z,101251.79
2023-10-10T23:51:00.619Z,101250.65
2023-10-10T23:53:28.356Z,101252.96
2023-10-10T23:56:00.632Z,101253.92
2023-10-10T23:58:30.559Z,101245.91
